Strona główna
METAR-TAF:

METAR-TAF

Lotnisko :

Madison, Dakota Południowa, Stany Zjednoczone

Szerokość geograficzna: 44-00-59N, Długość geograficzna: 097-05-08W, wysokość: 524 m

Aktualna obserwacja pogody

Raport powstał 5 minut temu, godzina 16:35 UTC
Wiatr 9 kt od północno-północny zachód
Temperatura 23°C
Wilgotność 65%
Ciśnienie 1013 hPa
Widzialność: 16.1 km
bezchmurnie

METAR: KMDS 161635Z AUTO 33009KT 10SM CLR 23/16 A2991 RMK AO2

czas: 10:40 (16:40 UTC)


TAF: brakujący

Obserwacja i prognoza pogody dla ponad 4000 lotnisk (raport METAR i TAF).

Dostępne stacje oznaczono żółtymi i czerwonymi punktami na mapie.

Najedź kursorem aby zobaczyć nazwę stacji.

Kliknij aby zobaczyć obserwacje i prognozy pogody.

Aby zmienić mapę: kliknij na zielony przycisk z czarnym krzyżykiem, aby powiększyć; na zielony przycisk z myślnikiem, aby pomniejszyć; na zielone strzałki, aby przejść do map sąsiednich.


METAR-TAF: